Time;durP1;ratioP1;P1;durP2;ratioP2;P2;SDS_P1;SDS_P2;PMS_P1;PMS_P2;Temp;Humidity;BMP_temperature;BMP_pressure;BME280_temperature;BME280_humidity;BME280_pressure;Samples;Min_cycle;Max_cycle;Signal;HPM_P1;HPM_P2
2024/02/04 00:00:40;;;;;;;9.60;2.40;;;6.80;99.90;;;;;;5038532;28;20204;-56
2024/02/04 00:03:07;;;;;;;7.17;1.60;;;6.70;99.90;;;;;;5025726;28;20238;-55
2024/02/04 00:05:34;;;;;;;12.20;1.80;;;6.70;99.90;;;;;;5019329;28;20321;-57
2024/02/04 00:08:02;;;;;;;15.30;3.03;;;6.80;99.90;;;;;;5012803;28;20729;-54
2024/02/04 00:10:28;;;;;;;10.57;2.20;;;6.70;99.90;;;;;;5024512;28;21605;-53
2024/02/04 00:12:55;;;;;;;11.13;2.07;;;6.80;99.90;;;;;;5033094;28;20234;-56
2024/02/04 00:15:22;;;;;;;9.27;1.60;;;6.70;99.90;;;;;;5039213;28;20195;-57
2024/02/04 00:17:50;;;;;;;5.50;1.60;;;6.70;99.90;;;;;;5036676;28;20198;-56
2024/02/04 00:20:17;;;;;;;9.53;2.37;;;6.70;99.90;;;;;;5031392;28;20556;-55
2024/02/04 00:22:44;;;;;;;6.27;2.00;;;6.70;99.90;;;;;;4989558;28;20211;-57
2024/02/04 00:25:11;;;;;;;7.77;1.80;;;6.70;99.90;;;;;;5017821;28;20295;-55
2024/02/04 00:27:38;;;;;;;12.10;2.20;;;6.60;99.90;;;;;;5034041;28;20198;-56
2024/02/04 00:30:06;;;;;;;11.67;2.23;;;6.60;99.90;;;;;;5033175;28;20978;-56
2024/02/04 00:32:33;;;;;;;10.17;2.00;;;6.50;99.90;;;;;;5036230;28;20297;-55
2024/02/04 00:35:02;;;;;;;9.37;2.27;;;6.50;99.90;;;;;;5030388;28;20552;-56
2024/02/04 00:37:29;;;;;;;12.03;1.93;;;6.50;99.90;;;;;;5005427;28;21202;-56
2024/02/04 00:39:56;;;;;;;12.47;1.90;;;6.50;99.90;;;;;;5041109;28;20249;-53
2024/02/04 00:42:23;;;;;;;13.90;3.17;;;6.50;99.90;;;;;;5036477;28;20236;-56
2024/02/04 00:44:50;;;;;;;8.23;1.93;;;6.50;99.90;;;;;;5021808;28;20215;-51
2024/02/04 00:47:17;;;;;;;15.03;2.50;;;6.40;99.90;;;;;;5030727;28;20219;-57
2024/02/04 00:49:43;;;;;;;11.30;1.90;;;6.40;99.90;;;;;;5012309;28;20196;-56
2024/02/04 00:52:12;;;;;;;11.67;3.07;;;6.40;99.90;;;;;;5032044;28;20280;-56
2024/02/04 00:54:38;;;;;;;12.30;2.00;;;6.30;99.90;;;;;;5012342;28;20198;-53
2024/02/04 00:57:05;;;;;;;7.13;2.27;;;6.30;99.90;;;;;;5033132;28;20203;-57
2024/02/04 00:59:32;;;;;;;6.80;1.43;;;6.30;99.90;;;;;;5010522;28;20191;-55
2024/02/04 01:01:59;;;;;;;9.80;1.70;;;6.30;99.90;;;;;;5034206;28;20277;-54
2024/02/04 01:04:26;;;;;;;6.97;1.70;;;6.30;99.90;;;;;;5029760;28;20268;-53
2024/02/04 01:06:53;;;;;;;6.80;1.80;;;6.30;99.90;;;;;;5029772;28;20207;-57
2024/02/04 01:09:21;;;;;;;12.33;2.47;;;6.30;99.90;;;;;;5004200;28;21553;-57
2024/02/04 01:11:47;;;;;;;8.00;1.53;;;6.30;99.90;;;;;;5020824;28;20195;-56
2024/02/04 01:14:14;;;;;;;13.57;2.00;;;6.30;99.90;;;;;;5027099;28;20804;-56
2024/02/04 01:16:41;;;;;;;8.53;2.00;;;6.40;99.90;;;;;;5017586;28;20199;-54
2024/02/04 01:19:08;;;;;;;8.30;1.93;;;6.40;99.90;;;;;;5028824;28;20191;-56
2024/02/04 01:21:35;;;;;;;10.53;1.90;;;6.40;99.90;;;;;;5027463;28;20199;-57
2024/02/04 01:24:01;;;;;;;6.97;1.60;;;6.40;99.90;;;;;;5010984;28;20265;-56
2024/02/04 01:26:30;;;;;;;10.37;1.87;;;6.50;99.90;;;;;;5033111;28;20231;-55
2024/02/04 01:28:57;;;;;;;11.13;2.03;;;6.50;99.90;;;;;;5023291;28;20215;-56
2024/02/04 01:31:24;;;;;;;7.60;1.87;;;6.50;99.90;;;;;;5030870;28;20191;-52
2024/02/04 01:33:51;;;;;;;8.30;1.40;;;6.50;99.90;;;;;;5038038;28;20215;-53
2024/02/04 01:36:19;;;;;;;7.40;2.50;;;6.60;99.90;;;;;;5031459;28;20195;-56
2024/02/04 01:38:45;;;;;;;8.87;1.67;;;6.60;99.90;;;;;;5009750;28;20733;-56
2024/02/04 01:41:12;;;;;;;9.87;1.60;;;6.60;99.90;;;;;;4991203;28;20195;-57
2024/02/04 01:43:41;;;;;;;12.63;1.77;;;6.70;99.90;;;;;;5038694;28;20211;-57
2024/02/04 01:46:08;;;;;;;8.20;1.93;;;6.70;99.90;;;;;;5009257;28;20223;-56
2024/02/04 01:48:36;;;;;;;15.57;2.23;;;6.70;99.90;;;;;;5013017;28;20258;-56
2024/02/04 01:51:04;;;;;;;12.43;2.40;;;6.70;99.90;;;;;;5028769;28;20211;-57
2024/02/04 01:53:35;;;;;;;6.70;2.43;;;6.80;99.90;;;;;;5031987;28;20218;-54
2024/02/04 01:56:02;;;;;;;9.47;1.43;;;6.80;99.90;;;;;;5019444;28;20558;-54
2024/02/04 01:58:30;;;;;;;7.67;1.83;;;6.80;99.90;;;;;;5021724;28;20207;-54
2024/02/04 02:00:59;;;;;;;10.97;1.90;;;6.80;99.90;;;;;;5002142;28;20204;-55
2024/02/04 02:03:27;;;;;;;6.83;1.50;;;6.90;99.90;;;;;;5032314;28;20222;-55
2024/02/04 02:05:55;;;;;;;11.93;2.60;;;6.90;99.90;;;;;;5026936;28;20247;-55
2024/02/04 02:08:22;;;;;;;7.77;1.57;;;6.90;99.90;;;;;;5006390;28;20211;-57
2024/02/04 02:10:50;;;;;;;4.97;1.57;;;6.90;99.90;;;;;;5012351;28;20300;-53
2024/02/04 02:13:24;;;;;;;9.50;2.20;;;6.90;99.90;;;;;;5017084;28;20220;-54
2024/02/04 02:15:56;;;;;;;8.43;1.67;;;6.90;99.90;;;;;;5009764;28;20210;-56
2024/02/04 02:18:30;;;;;;;9.03;1.47;;;7.00;99.90;;;;;;5037450;28;20199;-55
2024/02/04 02:21:19;;;;;;;7.67;1.50;;;7.00;99.90;;;;;;5035329;28;20198;-56
2024/02/04 02:24:00;;;;;;;7.20;2.00;;;7.00;99.90;;;;;;5009208;28;20219;-56
2024/02/04 02:26:29;;;;;;;11.30;1.63;;;7.00;99.90;;;;;;5006591;28;20213;-56
2024/02/04 02:28:56;;;;;;;6.90;1.70;;;7.00;99.90;;;;;;5033499;28;20279;-54
2024/02/04 02:31:23;;;;;;;6.67;1.63;;;7.10;99.90;;;;;;5011478;28;20203;-56
2024/02/04 02:33:49;;;;;;;10.50;2.70;;;7.00;99.90;;;;;;5035894;28;20212;-55
2024/02/04 02:36:22;;;;;;;4.43;1.10;;;7.00;99.90;;;;;;5024439;28;20203;-56
2024/02/04 02:39:00;;;;;;;9.83;1.70;;;7.10;99.90;;;;;;5021475;28;20575;-55
2024/02/04 02:41:31;;;;;;;10.07;1.57;;;7.00;99.90;;;;;;5004186;28;20203;-56
2024/02/04 02:44:01;;;;;;;5.80;1.43;;;7.10;99.90;;;;;;5026776;28;20199;-54
2024/02/04 02:46:28;;;;;;;7.87;1.60;;;7.00;99.90;;;;;;5041800;28;20241;-54
2024/02/04 02:48:55;;;;;;;8.40;1.80;;;7.00;99.90;;;;;;5015547;28;20192;-55
2024/02/04 02:51:22;;;;;;;6.30;1.37;;;7.00;99.90;;;;;;5040605;28;20249;-54
2024/02/04 02:53:49;;;;;;;6.77;1.20;;;7.00;99.90;;;;;;5036363;28;20274;-54
2024/02/04 02:56:15;;;;;;;9.23;1.70;;;6.90;99.90;;;;;;5029944;28;20228;-55
2024/02/04 02:58:44;;;;;;;3.97;1.50;;;6.90;99.90;;;;;;5009358;28;20532;-53
2024/02/04 03:01:11;;;;;;;5.07;1.73;;;6.90;99.90;;;;;;5023970;28;20199;-54
2024/02/04 03:03:38;;;;;;;7.63;1.67;;;6.90;99.90;;;;;;5036560;28;20234;-53
2024/02/04 03:06:05;;;;;;;8.23;1.67;;;6.80;99.90;;;;;;5039575;28;20219;-55
2024/02/04 03:08:32;;;;;;;5.93;1.37;;;6.80;99.90;;;;;;5020281;28;20193;-55
2024/02/04 03:10:59;;;;;;;8.47;1.30;;;6.80;99.90;;;;;;5038889;28;20250;-56
2024/02/04 03:13:25;;;;;;;6.20;1.47;;;6.70;99.90;;;;;;4991852;28;20536;-53
2024/02/04 03:15:54;;;;;;;6.03;1.13;;;6.80;99.90;;;;;;5021349;28;20200;-56
2024/02/04 03:18:20;;;;;;;5.43;1.50;;;6.80;99.90;;;;;;5008434;28;20876;-56
2024/02/04 03:20:47;;;;;;;7.40;1.40;;;6.70;99.90;;;;;;5041175;28;20192;-51
2024/02/04 03:23:14;;;;;;;5.93;1.50;;;6.70;99.90;;;;;;5016592;28;20358;-55
2024/02/04 03:25:42;;;;;;;9.43;1.63;;;6.70;99.90;;;;;;5016756;28;20223;-56
2024/02/04 03:28:08;;;;;;;6.17;1.77;;;6.70;99.90;;;;;;4997677;28;20257;-54
2024/02/04 03:30:35;;;;;;;6.80;1.57;;;6.70;99.90;;;;;;5013113;28;20295;-56
2024/02/04 03:33:04;;;;;;;6.63;1.60;;;6.70;99.90;;;;;;5029900;28;20244;-56
2024/02/04 03:35:31;;;;;;;7.73;1.50;;;6.60;99.90;;;;;;5037899;28;20923;-54
2024/02/04 03:37:58;;;;;;;8.33;1.27;;;6.60;99.90;;;;;;5039551;28;20191;-55
2024/02/04 03:40:25;;;;;;;7.97;1.77;;;6.60;99.90;;;;;;5020740;28;20184;-56
2024/02/04 03:42:52;;;;;;;9.97;1.67;;;6.60;99.90;;;;;;5036472;28;20216;-53
2024/02/04 03:45:19;;;;;;;6.77;1.60;;;6.60;99.90;;;;;;5011229;28;20241;-56
2024/02/04 03:47:46;;;;;;;13.23;2.13;;;6.60;99.90;;;;;;5028417;28;20257;-55
2024/02/04 03:50:14;;;;;;;5.17;1.40;;;6.60;99.90;;;;;;5037336;28;20556;-53
2024/02/04 03:52:43;;;;;;;7.40;1.50;;;6.50;99.90;;;;;;5034176;28;20589;-57
2024/02/04 03:55:10;;;;;;;5.63;1.50;;;6.50;99.90;;;;;;5010162;28;20199;-57
2024/02/04 03:57:37;;;;;;;9.60;1.73;;;6.50;99.90;;;;;;5013557;28;20203;-57
2024/02/04 04:00:04;;;;;;;5.67;1.57;;;6.50;99.90;;;;;;5021388;28;20203;-57
2024/02/04 04:02:38;;;;;;;4.80;1.53;;;6.40;99.90;;;;;;5027262;28;20223;-56
2024/02/04 04:05:06;;;;;;;8.00;2.00;;;6.40;99.90;;;;;;5021116;28;20215;-55
2024/02/04 04:07:34;;;;;;;6.30;1.63;;;6.50;99.90;;;;;;5035845;28;20241;-58
2024/02/04 04:10:01;;;;;;;6.67;1.67;;;6.40;99.90;;;;;;5032703;28;20212;-57
2024/02/04 04:12:28;;;;;;;5.40;1.87;;;6.40;99.90;;;;;;5032142;28;20219;-56
2024/02/04 04:14:54;;;;;;;7.87;1.87;;;6.40;99.90;;;;;;5027270;28;20203;-55
2024/02/04 04:17:21;;;;;;;9.20;1.97;;;6.40;99.90;;;;;;5010111;28;20278;-54
2024/02/04 04:19:48;;;;;;;11.23;1.60;;;6.40;99.90;;;;;;5007074;28;20671;-56
2024/02/04 04:22:15;;;;;;;9.97;1.80;;;6.40;99.90;;;;;;5024860;28;20223;-57
2024/02/04 04:24:43;;;;;;;8.43;1.90;;;6.40;99.90;;;;;;5028739;28;20220;-57
2024/02/04 04:27:10;;;;;;;5.83;1.43;;;6.40;99.90;;;;;;5032432;28;20223;-55
2024/02/04 04:29:37;;;;;;;5.60;1.40;;;6.40;99.90;;;;;;5028606;28;20562;-55
2024/02/04 04:32:04;;;;;;;11.27;1.57;;;6.40;99.90;;;;;;5002754;28;20884;-51
2024/02/04 04:34:31;;;;;;;8.77;1.87;;;6.40;99.90;;;;;;5027768;28;20195;-55
2024/02/04 04:36:58;;;;;;;7.80;1.73;;;6.40;99.90;;;;;;5028382;28;20214;-56
2024/02/04 04:39:25;;;;;;;6.07;2.00;;;6.40;99.90;;;;;;5032782;28;20204;-53
2024/02/04 04:41:53;;;;;;;6.30;1.50;;;6.30;99.90;;;;;;5026741;28;20223;-56
2024/02/04 04:44:20;;;;;;;9.03;2.17;;;6.40;99.90;;;;;;5034862;28;20199;-55
2024/02/04 04:46:47;;;;;;;8.97;1.90;;;6.30;99.90;;;;;;5010527;28;20288;-54
2024/02/04 04:49:13;;;;;;;5.53;1.67;;;6.30;99.90;;;;;;5029225;28;20235;-52
2024/02/04 04:51:44;;;;;;;7.73;1.90;;;6.30;99.90;;;;;;5035479;28;20195;-55
2024/02/04 04:54:11;;;;;;;5.03;2.00;;;6.30;99.90;;;;;;5034750;28;20192;-55
2024/02/04 04:56:39;;;;;;;6.23;2.00;;;6.30;99.90;;;;;;5027664;28;20242;-54
2024/02/04 04:59:08;;;;;;;6.33;1.77;;;6.30;99.90;;;;;;5029662;28;20287;-54
2024/02/04 05:01:35;;;;;;;5.03;1.73;;;6.30;99.90;;;;;;4996401;28;20250;-55
2024/02/04 05:04:02;;;;;;;11.17;2.70;;;6.30;99.90;;;;;;5037778;28;20206;-56
2024/02/04 05:06:28;;;;;;;8.63;2.27;;;6.30;99.90;;;;;;5019639;28;20764;-55
2024/02/04 05:08:55;;;;;;;6.43;1.87;;;6.20;99.90;;;;;;5042257;28;20200;-56
2024/02/04 05:11:22;;;;;;;11.60;2.33;;;6.20;99.90;;;;;;5032438;28;20192;-54
2024/02/04 05:13:49;;;;;;;15.10;2.60;;;6.20;99.90;;;;;;5013841;28;20280;-52
2024/02/04 05:16:17;;;;;;;7.67;1.87;;;6.20;99.90;;;;;;5032501;28;20195;-55
2024/02/04 05:18:44;;;;;;;9.27;2.30;;;6.20;99.90;;;;;;5007616;28;20284;-54
2024/02/04 05:21:11;;;;;;;11.50;2.47;;;6.20;99.90;;;;;;5033117;28;20660;-58
2024/02/04 05:23:37;;;;;;;9.13;2.20;;;6.20;99.90;;;;;;5023081;28;20219;-55
2024/02/04 05:26:05;;;;;;;8.40;2.20;;;6.20;99.90;;;;;;5034494;28;20199;-55
2024/02/04 05:28:32;;;;;;;6.33;2.20;;;6.20;99.90;;;;;;5026817;28;20188;-55
2024/02/04 05:30:59;;;;;;;10.67;2.10;;;6.20;99.90;;;;;;5035739;28;20203;-55
2024/02/04 05:33:27;;;;;;;8.50;2.37;;;6.20;99.90;;;;;;5006231;28;20221;-54
2024/02/04 05:35:54;;;;;;;7.87;2.10;;;6.10;99.90;;;;;;5031098;28;20551;-53
2024/02/04 05:38:22;;;;;;;8.97;2.73;;;6.10;99.90;;;;;;5029802;28;20585;-55
2024/02/04 05:40:49;;;;;;;9.40;2.03;;;6.10;99.90;;;;;;5022359;28;20192;-56
2024/02/04 05:43:16;;;;;;;11.30;2.20;;;6.10;99.90;;;;;;5031856;28;20281;-53
2024/02/04 05:45:43;;;;;;;7.63;2.00;;;6.10;99.90;;;;;;5028319;28;20199;-56
2024/02/04 05:48:10;;;;;;;12.83;3.40;;;6.10;99.90;;;;;;5032520;28;20261;-56
2024/02/04 05:50:38;;;;;;;15.33;2.30;;;6.10;99.90;;;;;;5004240;28;20212;-55
2024/02/04 05:53:05;;;;;;;5.13;1.80;;;6.10;99.90;;;;;;5023237;28;20224;-56
2024/02/04 05:55:32;;;;;;;6.63;2.10;;;6.10;99.90;;;;;;5039029;28;20261;-55
2024/02/04 05:57:59;;;;;;;5.43;1.87;;;6.10;99.90;;;;;;5025412;28;20183;-52
2024/02/04 06:00:27;;;;;;;8.97;2.67;;;6.10;99.90;;;;;;5020914;28;20203;-55
2024/02/04 06:02:54;;;;;;;10.87;2.33;;;6.10;99.90;;;;;;5037645;28;20227;-56
2024/02/04 06:05:20;;;;;;;10.40;2.10;;;6.10;99.90;;;;;;5007402;28;20273;-57
2024/02/04 06:07:49;;;;;;;13.63;2.37;;;6.10;99.90;;;;;;5027088;28;20216;-54
2024/02/04 06:10:18;;;;;;;9.50;2.70;;;6.10;99.90;;;;;;5022408;28;20207;-56
2024/02/04 06:12:45;;;;;;;9.13;2.50;;;6.10;99.90;;;;;;5034978;28;20215;-56
2024/02/04 06:15:13;;;;;;;7.67;2.50;;;6.20;99.90;;;;;;5031579;28;20245;-53
2024/02/04 06:17:40;;;;;;;8.77;1.90;;;6.20;99.90;;;;;;5032677;28;20267;-53
2024/02/04 06:20:08;;;;;;;15.90;2.20;;;6.20;99.90;;;;;;5032509;28;20272;-55
2024/02/04 06:22:35;;;;;;;7.53;2.30;;;6.20;99.90;;;;;;5009607;28;20269;-57
2024/02/04 06:25:04;;;;;;;7.13;2.30;;;6.20;99.90;;;;;;5029175;28;20214;-55
2024/02/04 06:27:31;;;;;;;8.70;2.07;;;6.20;99.90;;;;;;5033300;28;20765;-55
2024/02/04 06:29:58;;;;;;;8.83;2.17;;;6.20;99.90;;;;;;5036008;28;20549;-53
2024/02/04 06:32:25;;;;;;;6.47;1.93;;;6.20;99.90;;;;;;5031724;28;20216;-56
2024/02/04 06:34:54;;;;;;;10.57;2.10;;;6.20;99.90;;;;;;5039308;28;20610;-56
2024/02/04 06:37:20;;;;;;;6.33;1.90;;;6.20;99.90;;;;;;4998533;28;20689;-56
2024/02/04 06:39:47;;;;;;;10.77;1.93;;;6.20;99.90;;;;;;5037325;28;20207;-56
2024/02/04 06:42:15;;;;;;;7.73;1.83;;;6.20;99.90;;;;;;5037393;28;20280;-55
2024/02/04 06:44:44;;;;;;;5.00;1.90;;;6.30;99.90;;;;;;5032252;28;20949;-55
2024/02/04 06:47:12;;;;;;;9.07;2.37;;;6.20;99.90;;;;;;5032006;28;20219;-53
2024/02/04 06:49:38;;;;;;;7.00;2.30;;;6.30;99.90;;;;;;5036796;28;20274;-56
2024/02/04 06:52:06;;;;;;;5.73;1.80;;;6.20;99.90;;;;;;5009752;28;20227;-56
2024/02/04 06:54:33;;;;;;;7.97;1.90;;;6.20;99.90;;;;;;5027873;28;20192;-52
2024/02/04 06:56:59;;;;;;;7.00;2.00;;;6.30;99.90;;;;;;5034913;28;20200;-52
2024/02/04 06:59:27;;;;;;;10.23;2.30;;;6.20;99.90;;;;;;5036367;28;20235;-54
2024/02/04 07:01:54;;;;;;;9.97;1.90;;;6.20;99.90;;;;;;5039499;28;20269;-55
2024/02/04 07:04:23;;;;;;;13.30;2.63;;;6.20;99.90;;;;;;5030389;28;20277;-55
2024/02/04 07:06:51;;;;;;;11.23;1.73;;;6.20;99.90;;;;;;5037007;28;20223;-53
2024/02/04 07:09:17;;;;;;;7.47;1.63;;;6.20;99.90;;;;;;5022489;28;20203;-56
2024/02/04 07:11:44;;;;;;;11.80;2.43;;;6.20;99.90;;;;;;5031338;28;20200;-56
2024/02/04 07:14:11;;;;;;;6.63;1.60;;;6.20;99.90;;;;;;5034344;28;20233;-57
2024/02/04 07:16:39;;;;;;;5.77;1.67;;;6.20;99.90;;;;;;5033104;28;20234;-55
2024/02/04 07:19:06;;;;;;;8.30;1.60;;;6.20;99.90;;;;;;5035350;28;20211;-54
2024/02/04 07:21:33;;;;;;;10.13;2.37;;;6.20;99.90;;;;;;5034907;28;20985;-56
2024/02/04 07:24:00;;;;;;;9.23;2.13;;;6.20;99.90;;;;;;5009796;28;20211;-53
2024/02/04 07:26:26;;;;;;;9.50;2.17;;;6.20;99.90;;;;;;5026616;28;20223;-56
2024/02/04 07:28:53;;;;;;;7.10;1.43;;;6.20;99.90;;;;;;5035507;28;20626;-56
2024/02/04 07:31:21;;;;;;;11.57;1.87;;;6.20;99.90;;;;;;5035347;28;20195;-56
2024/02/04 07:33:49;;;;;;;11.47;1.87;;;6.30;99.90;;;;;;5039902;28;20211;-55
2024/02/04 07:36:16;;;;;;;13.33;2.50;;;6.30;99.90;;;;;;5019786;28;20224;-53
2024/02/04 07:38:43;;;;;;;6.23;1.80;;;6.30;99.90;;;;;;5008345;28;20223;-55
2024/02/04 07:41:10;;;;;;;9.13;2.27;;;6.30;99.90;;;;;;5032648;28;20677;-55
2024/02/04 07:43:36;;;;;;;11.73;2.13;;;6.30;99.90;;;;;;5029077;28;20715;-54
2024/02/04 07:46:03;;;;;;;9.20;2.30;;;6.30;99.90;;;;;;5034313;28;20199;-55
2024/02/04 07:48:31;;;;;;;15.13;2.03;;;6.30;99.90;;;;;;5031548;28;20262;-55
2024/02/04 07:50:59;;;;;;;10.17;2.00;;;6.30;99.90;;;;;;5042526;28;20233;-55
2024/02/04 07:53:26;;;;;;;11.03;2.17;;;6.40;99.90;;;;;;5033663;28;20238;-54
2024/02/04 07:55:53;;;;;;;11.07;2.17;;;6.40;99.90;;;;;;5011411;28;20203;-54
2024/02/04 07:58:19;;;;;;;8.90;2.17;;;6.40;99.90;;;;;;5025531;28;20223;-52
2024/02/04 08:00:46;;;;;;;13.20;2.13;;;6.40;99.90;;;;;;5037058;28;20258;-55
2024/02/04 08:03:13;;;;;;;19.33;2.33;;;6.40;99.90;;;;;;5034736;28;20313;-54
2024/02/04 08:05:40;;;;;;;9.63;1.93;;;6.50;99.90;;;;;;5019371;28;20281;-55
2024/02/04 08:08:08;;;;;;;9.50;2.33;;;6.50;99.90;;;;;;5037447;28;20212;-53
2024/02/04 08:10:35;;;;;;;9.47;1.93;;;6.50;99.90;;;;;;4998497;28;20211;-52
2024/02/04 08:13:02;;;;;;;15.13;2.93;;;6.50;99.90;;;;;;5044550;28;20288;-55
2024/02/04 08:15:29;;;;;;;9.10;1.87;;;6.50;99.90;;;;;;5026946;28;20199;-55
2024/02/04 08:17:56;;;;;;;8.33;2.13;;;6.60;99.90;;;;;;5033741;28;20196;-53
2024/02/04 08:20:23;;;;;;;11.63;2.50;;;6.60;99.90;;;;;;5022334;28;20208;-55
2024/02/04 08:22:50;;;;;;;10.67;1.90;;;6.60;99.90;;;;;;5041461;28;20605;-52
2024/02/04 08:25:18;;;;;;;8.93;2.70;;;6.60;99.90;;;;;;5003538;28;20261;-55
2024/02/04 08:27:45;;;;;;;12.43;3.07;;;6.70;99.90;;;;;;5039497;28;20219;-55
2024/02/04 08:30:12;;;;;;;10.00;2.20;;;6.70;99.90;;;;;;5017804;28;20278;-54
2024/02/04 08:32:39;;;;;;;9.57;1.83;;;6.70;99.90;;;;;;5037152;28;20220;-55
2024/02/04 08:35:07;;;;;;;7.83;1.87;;;6.70;99.90;;;;;;5032612;28;20196;-53
2024/02/04 08:37:35;;;;;;;11.40;2.50;;;6.70;99.90;;;;;;5019321;28;20274;-54
2024/02/04 08:40:03;;;;;;;7.43;2.30;;;6.70;99.90;;;;;;5049194;28;20200;-55
2024/02/04 08:42:31;;;;;;;10.70;2.73;;;6.80;99.90;;;;;;4997905;28;20297;-51
2024/02/04 08:44:58;;;;;;;9.53;1.77;;;6.80;99.90;;;;;;5041397;28;20666;-55
2024/02/04 08:47:25;;;;;;;10.07;2.60;;;6.80;99.90;;;;;;5028511;28;20257;-54
2024/02/04 08:49:51;;;;;;;14.03;2.87;;;6.80;99.90;;;;;;5027606;28;20203;-53
2024/02/04 08:52:18;;;;;;;9.20;2.40;;;6.80;99.90;;;;;;5028593;28;20254;-55
2024/02/04 08:54:45;;;;;;;11.73;3.03;;;6.80;99.90;;;;;;5040219;28;20270;-53
2024/02/04 08:57:12;;;;;;;10.33;2.77;;;6.90;99.90;;;;;;5010381;28;20223;-55
2024/02/04 08:59:40;;;;;;;6.00;2.63;;;6.90;99.90;;;;;;5021257;28;20199;-56
2024/02/04 09:02:07;;;;;;;8.33;1.50;;;6.90;99.90;;;;;;5029705;28;20223;-54
2024/02/04 09:04:40;;;;;;;8.70;2.33;;;6.90;99.90;;;;;;5031315;28;20187;-56
2024/02/04 09:07:07;;;;;;;14.77;3.10;;;6.90;99.90;;;;;;5034388;28;20211;-55
2024/02/04 09:09:33;;;;;;;10.37;3.83;;;6.90;99.90;;;;;;5025362;28;20215;-56
2024/02/04 09:12:00;;;;;;;7.00;2.90;;;6.90;99.90;;;;;;5006688;28;20663;-53
2024/02/04 09:14:27;;;;;;;8.90;2.97;;;6.90;99.90;;;;;;5026745;28;20855;-54
2024/02/04 09:16:55;;;;;;;13.23;2.97;;;6.90;99.90;;;;;;5028721;28;20676;-55
2024/02/04 09:19:24;;;;;;;10.30;3.00;;;7.00;99.90;;;;;;5026820;28;20238;-54
2024/02/04 09:21:51;;;;;;;12.93;3.17;;;7.00;99.90;;;;;;5018059;28;20227;-55
2024/02/04 09:24:18;;;;;;;6.90;2.93;;;7.00;99.90;;;;;;5033285;28;20207;-52
2024/02/04 09:26:45;;;;;;;10.13;2.67;;;7.00;99.90;;;;;;5008361;28;20242;-54
2024/02/04 09:29:11;;;;;;;8.70;2.57;;;7.10;99.90;;;;;;5010084;28;20207;-51
2024/02/04 09:31:38;;;;;;;14.63;2.87;;;7.10;99.90;;;;;;5025533;28;20195;-54
2024/02/04 09:34:06;;;;;;;7.87;2.40;;;7.10;99.90;;;;;;5028181;28;20196;-54
2024/02/04 09:36:33;;;;;;;11.67;2.50;;;7.10;99.90;;;;;;5038634;28;20329;-54
2024/02/04 09:39:00;;;;;;;7.23;2.50;;;7.10;99.90;;;;;;5020572;28;20308;-52
2024/02/04 09:41:27;;;;;;;7.60;2.77;;;7.20;99.90;;;;;;5034655;28;20733;-54
2024/02/04 09:43:54;;;;;;;16.73;3.07;;;7.20;99.90;;;;;;5009116;28;20223;-54
2024/02/04 09:46:22;;;;;;;12.30;2.93;;;7.20;99.90;;;;;;5033289;28;20202;-54
2024/02/04 09:48:52;;;;;;;10.00;2.73;;;7.20;99.90;;;;;;5034403;28;20214;-55
2024/02/04 09:51:20;;;;;;;7.53;2.93;;;7.20;99.90;;;;;;5039548;28;20254;-51
2024/02/04 09:53:52;;;;;;;10.30;2.40;;;7.30;99.90;;;;;;5031020;28;20229;-56
2024/02/04 09:56:19;;;;;;;8.67;2.23;;;7.30;99.90;;;;;;5029919;28;20196;-54
2024/02/04 09:58:46;;;;;;;15.17;3.03;;;7.30;99.90;;;;;;5001836;28;20264;-53
2024/02/04 10:01:15;;;;;;;14.10;2.80;;;7.30;99.90;;;;;;5029437;28;20245;-56
2024/02/04 10:03:42;;;;;;;11.33;3.00;;;7.30;99.90;;;;;;5025534;28;20227;-53
2024/02/04 10:06:09;;;;;;;9.10;2.77;;;7.30;99.90;;;;;;5028627;28;20199;-56
2024/02/04 10:08:39;;;;;;;10.30;3.03;;;7.30;99.90;;;;;;5029163;28;20242;-55
2024/02/04 10:11:06;;;;;;;13.60;2.83;;;7.30;99.90;;;;;;5034470;28;20568;-55
2024/02/04 10:13:43;;;;;;;10.60;2.97;;;7.30;99.90;;;;;;5030815;28;20220;-53
2024/02/04 10:16:10;;;;;;;15.03;2.50;;;7.30;99.90;;;;;;5007001;28;20299;-54
2024/02/04 10:18:38;;;;;;;7.23;1.73;;;7.30;99.90;;;;;;5022477;28;20211;-50
2024/02/04 10:21:05;;;;;;;10.87;2.57;;;7.40;99.90;;;;;;5034513;28;20211;-51
2024/02/04 10:23:31;;;;;;;10.33;2.93;;;7.40;99.90;;;;;;5021139;28;20219;-51
2024/02/04 10:26:00;;;;;;;9.53;2.57;;;7.40;99.90;;;;;;5039524;28;20195;-53
2024/02/04 10:28:27;;;;;;;9.07;2.37;;;7.50;99.90;;;;;;5029773;28;20222;-54
2024/02/04 10:30:54;;;;;;;8.73;2.67;;;7.50;99.90;;;;;;5013030;28;20582;-54
2024/02/04 10:33:21;;;;;;;11.40;2.53;;;7.50;99.90;;;;;;5031613;28;20250;-54
2024/02/04 10:35:48;;;;;;;16.43;2.70;;;7.50;99.90;;;;;;5035053;28;20249;-53
2024/02/04 10:38:15;;;;;;;7.70;2.40;;;7.60;99.90;;;;;;5041941;28;20254;-54
2024/02/04 10:40:42;;;;;;;13.53;3.33;;;7.60;99.90;;;;;;5038364;28;20195;-56
2024/02/04 10:43:11;;;;;;;12.73;3.10;;;7.60;99.90;;;;;;5039660;28;20288;-52
2024/02/04 10:45:43;;;;;;;9.97;3.40;;;7.60;99.90;;;;;;5010306;28;20318;-51
2024/02/04 10:48:12;;;;;;;15.93;2.93;;;7.70;99.90;;;;;;5050497;28;20225;-53
2024/02/04 10:50:39;;;;;;;14.60;3.00;;;7.70;99.90;;;;;;5038637;28;20204;-54
2024/02/04 10:53:08;;;;;;;15.77;3.07;;;7.70;99.90;;;;;;5039283;28;20265;-53
2024/02/04 10:55:41;;;;;;;11.40;2.40;;;7.70;99.90;;;;;;5033770;28;20206;-52
2024/02/04 10:58:10;;;;;;;12.13;2.73;;;7.70;99.90;;;;;;5043687;28;20192;-54
2024/02/04 11:00:37;;;;;;;13.83;2.30;;;7.80;99.90;;;;;;5034517;28;20196;-54
2024/02/04 11:03:05;;;;;;;10.43;2.27;;;7.80;99.90;;;;;;5017518;28;20242;-51
2024/02/04 11:05:35;;;;;;;10.80;2.37;;;7.80;99.90;;;;;;5030294;28;20227;-49
2024/02/04 11:08:03;;;;;;;11.37;3.00;;;7.80;99.90;;;;;;5032245;28;20219;-49
2024/02/04 11:10:32;;;;;;;11.80;2.37;;;7.80;99.90;;;;;;5029297;28;20202;-49
2024/02/04 11:13:00;;;;;;;9.70;2.37;;;7.80;99.90;;;;;;5036761;28;20215;-50
2024/02/04 11:15:36;;;;;;;11.50;2.30;;;7.80;99.90;;;;;;5036632;28;20199;-51
2024/02/04 11:18:34;;;;;;;9.97;2.87;;;7.90;99.90;;;;;;5009008;28;20868;-50
2024/02/04 11:21:20;;;;;;;13.97;2.63;;;7.90;99.90;;;;;;4993665;28;20206;-51
2024/02/04 11:23:59;;;;;;;9.40;2.40;;;7.90;99.90;;;;;;5035932;28;20306;-54
2024/02/04 11:26:26;;;;;;;13.43;2.70;;;7.90;99.90;;;;;;5033192;28;20203;-51
2024/02/04 11:28:53;;;;;;;15.47;2.20;;;7.90;99.90;;;;;;5040041;28;20218;-51
2024/02/04 11:31:21;;;;;;;15.53;2.87;;;8.00;99.90;;;;;;5039347;28;20195;-50
2024/02/04 11:33:52;;;;;;;9.57;2.13;;;8.00;99.90;;;;;;5024250;28;20247;-53
2024/02/04 11:36:18;;;;;;;12.13;2.30;;;8.10;99.90;;;;;;5032678;28;20203;-52
2024/02/04 11:38:49;;;;;;;16.77;2.67;;;8.10;99.90;;;;;;5021552;28;20275;-52
2024/02/04 11:41:23;;;;;;;13.50;2.90;;;8.10;99.90;;;;;;5028523;28;20231;-54
2024/02/04 11:43:54;;;;;;;13.13;2.77;;;8.10;99.90;;;;;;5015615;28;20226;-49
2024/02/04 11:46:23;;;;;;;7.97;2.43;;;8.10;99.90;;;;;;5041232;28;20569;-51
2024/02/04 11:48:54;;;;;;;9.27;2.73;;;8.10;99.90;;;;;;5013626;28;20753;-48
2024/02/04 11:51:23;;;;;;;16.10;3.27;;;8.10;99.90;;;;;;5035147;28;20282;-48
2024/02/04 11:53:50;;;;;;;10.97;2.60;;;8.20;99.90;;;;;;5030780;28;20215;-52
2024/02/04 11:56:18;;;;;;;9.43;2.77;;;8.10;99.90;;;;;;5036747;28;20204;-52
2024/02/04 11:58:46;;;;;;;14.03;3.10;;;8.20;99.90;;;;;;5033886;28;20198;-51
2024/02/04 12:01:13;;;;;;;12.23;2.63;;;8.20;99.90;;;;;;5036420;28;20200;-50
2024/02/04 12:03:41;;;;;;;9.23;2.10;;;8.20;99.90;;;;;;5021582;28;20227;-51
2024/02/04 12:06:10;;;;;;;15.70;2.73;;;8.20;99.90;;;;;;5018421;28;20203;-51
2024/02/04 12:08:38;;;;;;;6.00;2.10;;;8.20;99.90;;;;;;5034346;28;20757;-51
2024/02/04 12:11:06;;;;;;;11.73;2.33;;;8.30;99.90;;;;;;5031264;28;20215;-53
2024/02/04 12:13:37;;;;;;;16.90;2.70;;;8.30;99.90;;;;;;5033870;28;20595;-51
2024/02/04 12:16:05;;;;;;;8.53;2.13;;;8.30;99.90;;;;;;5037623;28;20353;-52
2024/02/04 12:18:32;;;;;;;11.50;1.80;;;8.40;99.90;;;;;;5029537;28;20222;-53
2024/02/04 12:21:00;;;;;;;11.73;2.23;;;8.40;99.90;;;;;;5010713;28;20220;-52
2024/02/04 12:23:28;;;;;;;13.07;2.23;;;8.40;99.90;;;;;;5028999;28;20226;-53
2024/02/04 12:25:55;;;;;;;8.63;1.87;;;8.40;99.90;;;;;;5035311;28;20233;-50
2024/02/04 12:28:22;;;;;;;6.03;2.00;;;8.40;99.90;;;;;;5032537;28;20269;-51
2024/02/04 12:30:55;;;;;;;6.60;2.30;;;8.40;99.90;;;;;;5028093;28;21066;-53
2024/02/04 12:33:22;;;;;;;5.50;1.87;;;8.50;99.90;;;;;;5039141;28;20829;-54
2024/02/04 12:35:51;;;;;;;12.13;2.13;;;8.50;99.90;;;;;;5008823;28;20320;-55
2024/02/04 12:38:19;;;;;;;10.20;2.80;;;8.50;99.90;;;;;;5032690;28;20195;-54
2024/02/04 12:40:46;;;;;;;6.77;2.37;;;8.50;99.90;;;;;;5031251;28;20199;-49
2024/02/04 12:43:13;;;;;;;10.97;2.27;;;8.50;99.90;;;;;;5029733;28;20712;-50
2024/02/04 12:45:40;;;;;;;9.40;2.20;;;8.50;99.90;;;;;;5024385;28;20203;-54
2024/02/04 12:48:08;;;;;;;18.03;2.53;;;8.50;99.90;;;;;;5032114;28;20869;-50
2024/02/04 12:50:38;;;;;;;8.13;2.57;;;8.50;99.90;;;;;;5031089;28;20200;-53
2024/02/04 12:53:06;;;;;;;10.97;2.10;;;8.60;99.90;;;;;;5004619;28;20284;-50
2024/02/04 12:55:35;;;;;;;9.33;2.00;;;8.60;99.90;;;;;;5035475;28;20219;-52